Time;durP1;ratioP1;P1;durP2;ratioP2;P2;SDS_P1;SDS_P2;PMS_P1;PMS_P2;Temp;Humidity;BMP_temperature;BMP_pressure;BME280_temperature;BME280_humidity;BME280_pressure;Samples;Min_cycle;Max_cycle;Signal;HPM_P1;HPM_P2
2021/06/25 00:39:18;;;;;;;;;;;27.30;92.70;;;;;;5141189;27;20266;-54
2021/06/25 00:41:44;;;;;;;;;;;27.70;91.40;;;;;;5123991;27;20118;-59
2021/06/25 00:44:20;;;;;;;;;;;27.60;91.60;;;;;;5121528;28;19911;-56
2021/06/25 00:46:47;;;;;;;;;;;27.60;91.60;;;;;;5121741;28;19919;-54
2021/06/25 00:49:14;;;;;;;;;;;27.60;91.70;;;;;;5122210;28;20192;-58
2021/06/25 00:51:40;;;;;;;;;;;27.50;91.70;;;;;;5125655;28;19953;-55
2021/06/25 00:54:08;;;;;;;;;;;27.50;92.00;;;;;;5139466;28;19915;-58
2021/06/25 00:56:34;;;;;;;;;;;27.50;91.70;;;;;;5142037;27;19963;-57
2021/06/25 00:59:00;;;;;;;;;;;27.50;91.80;;;;;;5141524;27;20196;-57
2021/06/25 01:01:27;;;;;;;;;;;27.40;91.70;;;;;;5141999;27;20207;-57
2021/06/25 01:03:53;;;;;;;;;;;27.40;91.80;;;;;;5141835;27;19919;-51
2021/06/25 01:06:19;;;;;;;;;;;27.40;91.90;;;;;;5142004;27;19904;-53
2021/06/25 01:08:46;;;;;;;;;;;27.40;91.80;;;;;;5142227;27;19915;-50
2021/06/25 01:11:12;;;;;;;;;;;27.30;91.60;;;;;;5142194;27;20184;-47
2021/06/25 01:13:39;;;;;;;;;;;27.30;91.70;;;;;;5142081;27;19908;-49
2021/06/25 01:16:06;;;;;;;;;;;27.30;91.90;;;;;;5141811;27;19986;-45
2021/06/25 01:18:32;;;;;;;;;;;27.30;91.90;;;;;;5141585;27;19949;-50
2021/06/25 01:20:59;;;;;;;;;;;27.30;91.90;;;;;;5141564;27;19914;-47
2021/06/25 01:23:26;;;;;;;;;;;27.40;91.80;;;;;;5137252;28;20111;-48
2021/06/25 01:25:53;;;;;;;;;;;27.40;91.70;;;;;;5114403;27;19911;-48
2021/06/25 01:28:21;;;;;;;;;;;27.50;91.70;;;;;;5119031;28;19912;-53
2021/06/25 01:30:48;;;;;;;;;;;27.50;91.60;;;;;;5127927;28;19904;-51
2021/06/25 01:33:16;;;;;;;;;;;27.50;91.60;;;;;;5116282;28;19935;-48
2021/06/25 01:35:43;;;;;;;;;;;27.40;91.60;;;;;;5107494;28;19911;-56
2021/06/25 01:38:10;;;;;;;;;;;27.40;91.80;;;;;;5116885;28;19920;-47
2021/06/25 01:40:38;;;;;;;;;;;27.40;91.60;;;;;;5127724;28;19904;-49
2021/06/25 01:43:05;;;;;;;;;;;27.40;91.70;;;;;;5127858;28;20233;-47
2021/06/25 01:45:33;;;;;;;;;;;27.40;91.70;;;;;;5127633;28;19904;-43
2021/06/25 01:48:00;;;;;;;;;;;27.40;91.70;;;;;;5127794;28;19912;-47
2021/06/25 01:50:28;;;;;;;;;;;27.40;91.80;;;;;;5127557;28;19930;-44
2021/06/25 01:52:58;;;;;;;;;;;27.30;91.80;;;;;;5127612;28;20033;-47
2021/06/25 01:55:26;;;;;;;;;;;27.30;91.80;;;;;;5127462;28;19904;-47
2021/06/25 01:57:52;;;;;;;;;;;27.30;91.80;;;;;;5127566;28;20176;-48
2021/06/25 02:00:19;;;;;;;;;;;27.30;91.80;;;;;;5127259;28;20130;-45
2021/06/25 02:02:45;;;;;;;;;;;27.30;91.80;;;;;;5127021;27;19928;-50
2021/06/25 02:05:12;;;;;;;;;;;27.30;91.80;;;;;;5127377;28;20210;-49
2021/06/25 02:07:39;;;;;;;;;;;27.30;91.80;;;;;;5116810;28;19912;-48
2021/06/25 02:10:06;;;;;;;;;;;27.30;91.80;;;;;;5106771;28;19942;-48
2021/06/25 02:12:32;;;;;;;;;;;27.30;91.80;;;;;;5111074;28;19911;-53
2021/06/25 02:14:59;;;;;;;;;;;27.30;91.90;;;;;;5126961;28;19903;-48
2021/06/25 02:17:25;;;;;;;;;;;27.30;91.90;;;;;;5126709;28;19965;-47
2021/06/25 02:19:51;;;;;;;;;;;27.30;91.90;;;;;;5126976;28;19904;-47
2021/06/25 02:22:17;;;;;;;;;;;27.20;91.80;;;;;;5126296;28;19915;-51
2021/06/25 02:24:43;;;;;;;;;;;27.20;91.80;;;;;;5126879;28;20038;-45
2021/06/25 02:27:10;;;;;;;;;;;27.20;91.80;;;;;;5126896;28;19939;-51
2021/06/25 02:29:36;;;;;;;;;;;27.20;91.90;;;;;;5126850;28;19903;-47
2021/06/25 02:32:02;;;;;;;;;;;27.20;91.90;;;;;;5126625;28;19911;-47
2021/06/25 02:34:29;;;;;;;;;;;27.20;92.00;;;;;;5126805;27;19943;-49
2021/06/25 02:36:55;;;;;;;;;;;27.20;91.90;;;;;;5120966;28;19912;-47
2021/06/25 02:39:21;;;;;;;;;;;27.20;91.90;;;;;;5125918;28;20100;-47
2021/06/25 02:41:47;;;;;;;;;;;27.20;91.90;;;;;;5117811;27;19912;-48
2021/06/25 02:44:14;;;;;;;;;;;27.20;91.90;;;;;;5106308;28;19916;-53
2021/06/25 02:46:40;;;;;;;;;;;27.20;91.80;;;;;;5105388;28;19919;-53
2021/06/25 02:49:06;;;;;;;;;;;27.20;91.90;;;;;;5107015;28;20192;-46
2021/06/25 02:51:32;;;;;;;;;;;27.20;91.90;;;;;;5105592;28;19949;-49
2021/06/25 02:53:58;;;;;;;;;;;27.20;91.80;;;;;;5121145;28;19912;-46
2021/06/25 02:56:24;;;;;;;;;;;27.20;91.90;;;;;;5126122;28;19975;-56
2021/06/25 02:58:51;;;;;;;;;;;27.10;91.90;;;;;;5126018;28;19918;-50
2021/06/25 03:01:17;;;;;;;;;;;27.10;91.90;;;;;;5125845;28;19904;-46
2021/06/25 03:03:44;;;;;;;;;;;27.10;91.80;;;;;;5118900;28;19985;-47
2021/06/25 03:06:10;;;;;;;;;;;27.10;91.80;;;;;;5104930;28;19916;-54
2021/06/25 03:08:37;;;;;;;;;;;27.20;91.80;;;;;;5118644;28;19919;-49
2021/06/25 03:11:03;;;;;;;;;;;27.20;91.80;;;;;;5125896;28;19927;-53
2021/06/25 03:13:29;;;;;;;;;;;27.20;91.80;;;;;;5125934;28;19914;-46
2021/06/25 03:15:55;;;;;;;;;;;27.10;91.80;;;;;;5125769;28;19907;-50
2021/06/25 03:18:22;;;;;;;;;;;27.10;91.80;;;;;;5125954;28;20256;-48
2021/06/25 03:20:48;;;;;;;;;;;27.10;91.80;;;;;;5118525;28;19907;-54
2021/06/25 03:23:14;;;;;;;;;;;27.10;91.70;;;;;;5105493;28;19912;-48
2021/06/25 03:25:40;;;;;;;;;;;27.10;91.70;;;;;;5105059;28;19935;-51
2021/06/25 03:28:07;;;;;;;;;;;27.10;91.70;;;;;;5104722;28;20202;-50
2021/06/25 03:30:34;;;;;;;;;;;27.10;91.60;;;;;;5108048;28;20188;-45
2021/06/25 03:33:01;;;;;;;;;;;27.10;91.60;;;;;;5125725;28;19914;-51
2021/06/25 03:35:27;;;;;;;;;;;27.10;91.70;;;;;;5125366;28;19911;-52
2021/06/25 03:37:53;;;;;;;;;;;27.10;91.70;;;;;;5105132;28;19953;-50
2021/06/25 03:40:20;;;;;;;;;;;27.10;91.80;;;;;;5106378;28;19923;-51
2021/06/25 03:42:46;;;;;;;;;;;27.10;91.90;;;;;;5125434;28;19918;-48
2021/06/25 03:45:13;;;;;;;;;;;27.00;91.80;;;;;;5125289;28;20092;-52
2021/06/25 03:47:40;;;;;;;;;;;27.10;92.00;;;;;;5125234;28;19908;-50
2021/06/25 03:50:07;;;;;;;;;;;27.10;92.00;;;;;;5125400;28;19899;-48
2021/06/25 03:52:33;;;;;;;;;;;27.10;92.00;;;;;;5125456;28;19947;-48
2021/06/25 03:54:59;;;;;;;;;;;27.00;92.10;;;;;;5123955;28;20206;-49
2021/06/25 03:57:25;;;;;;;;;;;27.00;92.20;;;;;;5125027;28;19953;-45
2021/06/25 03:59:51;;;;;;;;;;;27.00;92.20;;;;;;5125007;28;20091;-46
2021/06/25 04:02:18;;;;;;;;;;;27.00;92.20;;;;;;5124633;28;24073;-48
2021/06/25 04:04:44;;;;;;;;;;;27.00;92.40;;;;;;5125022;28;19899;-46
2021/06/25 04:07:10;;;;;;;;;;;26.90;92.40;;;;;;5125031;28;19907;-53
2021/06/25 04:09:38;;;;;;;;;;;26.90;92.40;;;;;;5124978;28;19907;-51
2021/06/25 04:12:05;;;;;;;;;;;26.90;92.40;;;;;;5124902;28;19908;-47
2021/06/25 04:14:31;;;;;;;;;;;27.00;92.30;;;;;;5124463;28;19900;-48
2021/06/25 04:16:57;;;;;;;;;;;26.90;92.20;;;;;;5103299;28;20244;-48
2021/06/25 04:19:23;;;;;;;;;;;26.90;92.20;;;;;;5104374;28;19931;-48
2021/06/25 04:21:51;;;;;;;;;;;27.00;92.10;;;;;;5118835;28;20175;-45
2021/06/25 04:24:20;;;;;;;;;;;26.90;92.00;;;;;;5124805;28;19922;-50
2021/06/25 04:26:46;;;;;;;;;;;26.90;91.90;;;;;;5125032;28;19908;-51
2021/06/25 04:29:14;;;;;;;;;;;26.90;92.00;;;;;;5124907;28;19922;-48
2021/06/25 04:31:43;;;;;;;;;;;26.90;92.00;;;;;;5124513;28;19899;-50
2021/06/25 04:34:09;;;;;;;;;;;26.90;92.00;;;;;;5124822;28;19900;-52
2021/06/25 04:36:35;;;;;;;;;;;26.90;92.00;;;;;;5123254;28;20106;-49
2021/06/25 04:39:04;;;;;;;;;;;26.90;92.10;;;;;;5124669;28;20214;-49
2021/06/25 04:41:32;;;;;;;;;;;26.90;92.20;;;;;;5114086;28;19908;-44
2021/06/25 04:43:58;;;;;;;;;;;26.90;92.30;;;;;;5103842;28;19980;-47
2021/06/25 04:46:24;;;;;;;;;;;26.90;92.30;;;;;;5105146;28;19937;-47
2021/06/25 04:48:50;;;;;;;;;;;26.90;92.30;;;;;;5103688;28;19915;-54
2021/06/25 04:51:17;;;;;;;;;;;26.90;92.40;;;;;;5106360;28;20136;-46
2021/06/25 04:53:43;;;;;;;;;;;26.80;92.40;;;;;;5103654;28;20196;-44
2021/06/25 04:56:09;;;;;;;;;;;26.80;92.50;;;;;;5106324;28;19942;-47
2021/06/25 04:58:35;;;;;;;;;;;26.80;92.50;;;;;;5104458;28;19947;-47
2021/06/25 05:01:01;;;;;;;;;;;26.80;92.50;;;;;;5110122;28;20092;-53
2021/06/25 05:03:28;;;;;;;;;;;26.80;92.60;;;;;;5107842;28;19919;-51
2021/06/25 05:05:54;;;;;;;;;;;26.80;92.60;;;;;;5109005;28;19931;-48
2021/06/25 05:08:20;;;;;;;;;;;26.80;92.60;;;;;;5108276;28;19908;-44
2021/06/25 05:10:47;;;;;;;;;;;26.80;92.60;;;;;;5113271;28;20180;-44
2021/06/25 05:13:15;;;;;;;;;;;26.80;92.60;;;;;;5128652;28;19907;-50
2021/06/25 05:15:41;;;;;;;;;;;26.80;92.60;;;;;;5127182;28;20390;-51
2021/06/25 05:18:15;;;;;;;;;;;26.80;92.60;;;;;;5106948;28;19952;-51
2021/06/25 05:20:42;;;;;;;;;;;26.80;92.50;;;;;;5111903;28;20192;-46
2021/06/25 05:23:09;;;;;;;;;;;26.80;92.60;;;;;;5128488;28;19911;-45
2021/06/25 05:25:35;;;;;;;;;;;26.70;92.70;;;;;;5128150;28;19939;-44
2021/06/25 05:28:02;;;;;;;;;;;26.70;92.70;;;;;;5128717;28;20235;-49
2021/06/25 05:30:28;;;;;;;;;;;26.60;92.70;;;;;;5128057;28;19900;-55
2021/06/25 05:32:54;;;;;;;;;;;26.70;92.70;;;;;;5128402;28;20176;-44
2021/06/25 05:35:21;;;;;;;;;;;26.60;92.70;;;;;;5128009;28;19907;-47
2021/06/25 05:37:47;;;;;;;;;;;26.60;92.80;;;;;;5127749;28;19955;-44
2021/06/25 05:40:15;;;;;;;;;;;26.60;92.70;;;;;;5127792;28;19899;-46
2021/06/25 05:42:41;;;;;;;;;;;26.60;92.70;;;;;;5128019;28;19911;-47
2021/06/25 05:45:07;;;;;;;;;;;26.60;92.70;;;;;;5127861;28;19899;-56
2021/06/25 05:47:33;;;;;;;;;;;26.60;92.60;;;;;;5128061;28;20255;-53
2021/06/25 05:50:00;;;;;;;;;;;26.60;92.70;;;;;;5127822;28;19942;-45
2021/06/25 05:52:26;;;;;;;;;;;26.60;92.60;;;;;;5127614;28;19948;-45
2021/06/25 05:54:52;;;;;;;;;;;26.60;92.70;;;;;;5127476;28;20090;-45
2021/06/25 05:57:18;;;;;;;;;;;26.60;92.80;;;;;;5127322;28;19914;-58
2021/06/25 05:59:44;;;;;;;;;;;26.60;92.70;;;;;;5127305;28;19900;-47
2021/06/25 06:02:10;;;;;;;;;;;26.50;92.60;;;;;;5127271;28;20129;-42
2021/06/25 06:04:37;;;;;;;;;;;26.50;92.50;;;;;;5127191;27;19941;-45
2021/06/25 06:07:05;;;;;;;;;;;26.50;92.50;;;;;;5127272;28;19915;-45
2021/06/25 06:09:31;;;;;;;;;;;26.50;92.80;;;;;;5126683;28;19899;-50
2021/06/25 06:11:58;;;;;;;;;;;26.50;92.60;;;;;;5115661;28;19946;-45
2021/06/25 06:14:24;;;;;;;;;;;26.50;92.60;;;;;;5106353;28;19922;-44
2021/06/25 06:16:50;;;;;;;;;;;26.50;92.70;;;;;;5106167;28;24085;-45
2021/06/25 06:19:16;;;;;;;;;;;26.40;92.90;;;;;;5106326;28;20286;-45
2021/06/25 06:35:19;;;;;;;;;;;26.40;92.90;;;;;;5126624;28;19935;-44
2021/06/25 06:37:49;;;;;;;;;;;26.40;92.90;;;;;;5126344;28;20100;-48
2021/06/25 06:40:19;;;;;;;;;;;26.40;93.00;;;;;;5125638;28;19911;-43
2021/06/25 06:42:48;;;;;;;;;;;26.40;92.80;;;;;;5126478;28;20065;-42
2021/06/25 06:45:17;;;;;;;;;;;26.40;92.80;;;;;;5126368;28;19921;-47
2021/06/25 06:47:44;;;;;;;;;;;26.40;92.80;;;;;;5126418;28;19914;-42
2021/06/25 06:50:11;;;;;;;;;;;26.40;92.80;;;;;;5126558;28;20181;-45
2021/06/25 06:52:37;;;;;;;;;;;26.40;92.80;;;;;;5126391;28;19908;-45
2021/06/25 06:55:04;;;;;;;;;;;26.40;92.90;;;;;;5126258;28;19943;-45
2021/06/25 06:57:30;;;;;;;;;;;26.40;92.90;;;;;;5126222;28;19912;-45
2021/06/25 06:59:56;;;;;;;;;;;26.30;92.90;;;;;;5126187;28;19899;-51
2021/06/25 07:02:22;;;;;;;;;;;26.30;92.90;;;;;;5125981;28;20184;-46
2021/06/25 07:04:51;;;;;;;;;;;26.30;92.80;;;;;;5126123;28;19900;-45
2021/06/25 07:07:17;;;;;;;;;;;26.30;92.70;;;;;;5125939;27;20079;-45
2021/06/25 07:09:43;;;;;;;;;;;26.30;92.70;;;;;;5125969;28;19969;-50
2021/06/25 07:12:09;;;;;;;;;;;26.30;92.70;;;;;;5125868;28;19953;-51
2021/06/25 07:14:36;;;;;;;;;;;26.30;92.50;;;;;;5125892;28;19900;-46
2021/06/25 07:17:03;;;;;;;;;;;26.30;92.50;;;;;;5125620;28;19974;-49
2021/06/25 07:19:29;;;;;;;;;;;26.30;92.60;;;;;;5125811;28;19903;-56
2021/06/25 07:21:55;;;;;;;;;;;26.30;92.60;;;;;;5125117;28;19914;-48
2021/06/25 07:24:21;;;;;;;;;;;26.30;92.70;;;;;;5125700;28;19935;-45
2021/06/25 07:26:48;;;;;;;;;;;26.30;92.80;;;;;;5125464;28;19984;-44
2021/06/25 07:29:14;;;;;;;;;;;26.30;92.80;;;;;;5125615;28;19899;-46
2021/06/25 07:31:40;;;;;;;;;;;26.30;92.80;;;;;;5125337;27;19906;-48
2021/06/25 07:34:06;;;;;;;;;;;26.30;93.10;;;;;;5125549;28;19900;-44
2021/06/25 07:36:33;;;;;;;;;;;26.30;92.90;;;;;;5125347;28;19900;-45
2021/06/25 07:39:00;;;;;;;;;;;26.30;92.90;;;;;;5125217;28;19990;-44
2021/06/25 07:41:26;;;;;;;;;;;26.30;93.00;;;;;;5125217;28;19967;-45
2021/06/25 07:43:52;;;;;;;;;;;26.30;92.90;;;;;;5125348;28;19925;-49
2021/06/25 07:46:19;;;;;;;;;;;26.20;92.90;;;;;;5125154;28;19900;-54
2021/06/25 07:48:45;;;;;;;;;;;26.20;92.90;;;;;;5124332;28;19912;-51
2021/06/25 07:51:11;;;;;;;;;;;26.20;92.90;;;;;;5125014;28;20009;-53
2021/06/25 07:53:37;;;;;;;;;;;26.20;92.90;;;;;;5125767;28;19971;-45
2021/06/25 07:56:03;;;;;;;;;;;26.20;92.90;;;;;;5124997;28;19908;-45
2021/06/25 07:58:30;;;;;;;;;;;26.20;92.90;;;;;;5125653;28;19935;-45
2021/06/25 08:00:56;;;;;;;;;;;26.20;92.90;;;;;;5124904;28;19926;-43
2021/06/25 08:03:22;;;;;;;;;;;26.20;92.90;;;;;;5125452;28;19918;-43
2021/06/25 08:05:48;;;;;;;;;;;26.20;93.00;;;;;;5124952;28;19903;-45
2021/06/25 08:08:14;;;;;;;;;;;26.20;93.00;;;;;;5124979;28;19939;-46
2021/06/25 08:10:40;;;;;;;;;;;26.20;93.10;;;;;;5125014;28;20132;-53
2021/06/25 08:13:07;;;;;;;;;;;26.20;93.10;;;;;;5125053;28;19974;-44
2021/06/25 08:15:33;;;;;;;;;;;26.20;93.10;;;;;;5115852;28;19900;-52
2021/06/25 08:17:59;;;;;;;;;;;26.20;93.20;;;;;;5123583;28;19938;-48
2021/06/25 08:20:26;;;;;;;;;;;26.20;93.20;;;;;;5124998;28;19906;-46
2021/06/25 08:22:52;;;;;;;;;;;26.10;93.20;;;;;;5124998;28;19911;-49
2021/06/25 08:25:18;;;;;;;;;;;26.10;93.20;;;;;;5124701;28;19907;-46
2021/06/25 08:27:44;;;;;;;;;;;26.10;93.20;;;;;;5124998;28;20179;-50
2021/06/25 08:30:11;;;;;;;;;;;26.10;93.20;;;;;;5124979;28;19963;-45
2021/06/25 08:32:38;;;;;;;;;;;26.10;93.20;;;;;;5124795;28;19914;-47
2021/06/25 08:35:04;;;;;;;;;;;26.10;93.20;;;;;;5127626;28;19900;-50
2021/06/25 08:37:31;;;;;;;;;;;26.10;93.20;;;;;;5128729;28;19952;-45
2021/06/25 08:39:57;;;;;;;;;;;26.10;93.20;;;;;;5128948;28;19966;-43
2021/06/25 08:42:24;;;;;;;;;;;26.10;93.30;;;;;;5128903;28;20073;-50
2021/06/25 08:44:50;;;;;;;;;;;26.10;93.40;;;;;;5129077;28;19907;-45
2021/06/25 08:47:16;;;;;;;;;;;26.10;93.30;;;;;;5128911;28;19914;-46
2021/06/25 08:49:46;;;;;;;;;;;26.10;93.30;;;;;;5127488;28;20126;-52
2021/06/25 08:52:12;;;;;;;;;;;26.10;93.20;;;;;;5128529;28;19915;-44
2021/06/25 08:54:38;;;;;;;;;;;26.10;93.20;;;;;;5128571;28;19900;-52
2021/06/25 08:57:07;;;;;;;;;;;26.10;93.10;;;;;;5128478;28;20349;-42
2021/06/25 08:59:34;;;;;;;;;;;26.10;93.10;;;;;;5128350;28;19899;-48
2021/06/25 09:02:02;;;;;;;;;;;26.00;93.20;;;;;;5128442;27;19915;-48
2021/06/25 09:04:33;;;;;;;;;;;26.00;93.20;;;;;;5128162;28;19907;-42
2021/06/25 09:06:59;;;;;;;;;;;26.00;93.20;;;;;;5128426;28;19908;-47
2021/06/25 09:09:36;;;;;;;;;;;26.00;93.20;;;;;;5127529;28;19907;-46
2021/06/25 09:12:10;;;;;;;;;;;26.00;93.30;;;;;;5128317;28;19930;-50
2021/06/25 09:14:54;;;;;;;;;;;26.00;93.30;;;;;;5127993;28;19906;-45
2021/06/25 09:17:21;;;;;;;;;;;26.00;93.30;;;;;;5128397;28;19914;-50
2021/06/25 09:19:47;;;;;;;;;;;26.00;93.20;;;;;;5128044;28;20073;-48
2021/06/25 09:22:13;;;;;;;;;;;26.00;93.30;;;;;;5127928;27;19916;-52
2021/06/25 09:24:39;;;;;;;;;;;26.00;93.30;;;;;;5127942;28;19899;-45
2021/06/25 09:27:07;;;;;;;;;;;25.90;93.40;;;;;;5128066;28;19996;-42
2021/06/25 09:29:35;;;;;;;;;;;26.00;93.50;;;;;;5127680;28;19900;-44
2021/06/25 09:32:06;;;;;;;;;;;25.90;93.40;;;;;;5127905;28;19908;-47
2021/06/25 09:34:49;;;;;;;;;;;25.90;93.50;;;;;;5127870;27;19903;-54
2021/06/25 09:37:17;;;;;;;;;;;25.90;93.40;;;;;;5127803;28;19939;-51
2021/06/25 09:39:56;;;;;;;;;;;25.90;93.60;;;;;;5127738;28;19931;-45
2021/06/25 09:42:22;;;;;;;;;;;25.90;93.50;;;;;;5126372;28;19946;-49
2021/06/25 09:44:58;;;;;;;;;;;25.90;93.50;;;;;;5127115;28;19900;-46
2021/06/25 09:47:31;;;;;;;;;;;25.90;93.60;;;;;;5127599;28;19908;-56
2021/06/25 09:50:14;;;;;;;;;;;25.90;93.60;;;;;;5127631;28;19907;-45
2021/06/25 09:52:55;;;;;;;;;;;25.90;93.90;;;;;;5127537;28;19915;-47
2021/06/25 09:55:23;;;;;;;;;;;25.80;93.70;;;;;;5127305;28;20096;-51
2021/06/25 09:58:25;;;;;;;;;;;25.80;93.70;;;;;;5127605;28;19938;-47
2021/06/25 10:03:47;;;;;;;;;;;25.80;93.60;;;;;;5127529;28;19961;-45
2021/06/25 10:06:15;;;;;;;;;;;25.80;93.70;;;;;;5125986;28;20103;-51
2021/06/25 10:08:41;;;;;;;;;;;25.80;93.70;;;;;;5127518;28;19918;-46
2021/06/25 10:11:08;;;;;;;;;;;25.80;93.80;;;;;;5127109;28;20199;-46
2021/06/25 10:13:36;;;;;;;;;;;25.80;93.80;;;;;;5127401;28;19941;-57
2021/06/25 10:16:06;;;;;;;;;;;25.80;93.70;;;;;;5126875;28;19904;-52
2021/06/25 10:18:37;;;;;;;;;;;25.80;93.70;;;;;;5127429;28;19903;-46
2021/06/25 10:21:04;;;;;;;;;;;25.80;93.70;;;;;;5126713;27;19961;-51
2021/06/25 10:23:34;;;;;;;;;;;25.80;93.80;;;;;;5127159;28;19911;-43
2021/06/25 10:26:07;;;;;;;;;;;25.80;93.70;;;;;;5126767;28;19907;-46
2021/06/25 10:28:40;;;;;;;;;;;25.80;93.70;;;;;;5126956;28;19903;-47
2021/06/25 10:31:08;;;;;;;;;;;25.80;93.70;;;;;;5126728;28;19941;-42
2021/06/25 10:33:35;;;;;;;;;;;25.80;93.60;;;;;;5126942;28;19903;-55
2021/06/25 10:36:02;;;;;;;;;;;25.80;93.60;;;;;;5126392;28;19913;-46
2021/06/25 10:38:29;;;;;;;;;;;25.80;93.60;;;;;;5126357;28;19916;-46
2021/06/25 10:40:57;;;;;;;;;;;25.70;93.60;;;;;;5126451;28;20152;-53
2021/06/25 10:43:41;;;;;;;;;;;25.70;93.50;;;;;;5126625;28;20301;-47
2021/06/25 10:46:32;;;;;;;;;;;25.70;93.50;;;;;;5126616;28;19941;-44
2021/06/25 10:49:03;;;;;;;;;;;25.70;93.50;;;;;;5126226;28;20103;-44
2021/06/25 10:51:35;;;;;;;;;;;25.70;93.60;;;;;;5126239;28;20187;-44
2021/06/25 10:54:10;;;;;;;;;;;25.70;93.60;;;;;;5126296;28;19968;-44
2021/06/25 10:56:40;;;;;;;;;;;25.70;93.60;;;;;;5125353;28;19931;-50
2021/06/25 10:59:26;;;;;;;;;;;25.70;93.60;;;;;;5125986;28;19900;-49
2021/06/25 11:02:00;;;;;;;;;;;25.70;93.60;;;;;;5126074;28;19935;-52
2021/06/25 11:04:37;;;;;;;;;;;25.70;93.60;;;;;;5125851;28;19966;-50
2021/06/25 11:07:06;;;;;;;;;;;25.70;93.70;;;;;;5124710;28;20186;-49
2021/06/25 11:09:54;;;;;;;;;;;25.70;93.80;;;;;;5125794;28;19900;-51
2021/06/25 11:12:23;;;;;;;;;;;25.80;93.80;;;;;;5126141;28;19908;-51
2021/06/25 11:14:50;;;;;;;;;;;25.80;93.80;;;;;;5125610;28;19899;-51
2021/06/25 11:17:35;;;;;;;;;;;25.80;93.70;;;;;;5125889;28;20208;-52
2021/06/25 11:20:16;;;;;;;;;;;25.90;93.70;;;;;;5125624;28;19937;-53
2021/06/25 11:22:42;;;;;;;;;;;26.00;93.60;;;;;;5125509;28;19908;-57
2021/06/25 11:25:13;;;;;;;;;;;26.10;93.60;;;;;;5125726;28;19904;-50
2021/06/25 11:27:57;;;;;;;;;;;26.20;93.50;;;;;;5126085;28;20060;-46
2021/06/25 11:30:42;;;;;;;;;;;26.30;93.30;;;;;;5125588;28;20196;-46
2021/06/25 11:33:27;;;;;;;;;;;26.50;93.20;;;;;;5126006;28;20003;-56
2021/06/25 11:35:54;;;;;;;;;;;26.50;93.00;;;;;;5125264;28;19974;-55
2021/06/25 11:38:42;;;;;;;;;;;26.60;93.00;;;;;;5125320;28;19915;-54
2021/06/25 11:41:12;;;;;;;;;;;26.70;92.90;;;;;;5125273;28;19974;-45
2021/06/25 11:43:39;;;;;;;;;;;26.80;92.90;;;;;;5125722;28;20215;-57
2021/06/25 11:46:05;;;;;;;;;;;26.90;92.60;;;;;;5125271;28;19900;-52
2021/06/25 11:48:32;;;;;;;;;;;27.10;92.30;;;;;;5125651;28;20061;-45
2021/06/25 11:51:00;;;;;;;;;;;27.30;92.00;;;;;;5125353;28;19906;-46
2021/06/25 11:53:26;;;;;;;;;;;27.40;91.80;;;;;;5125635;28;19907;-53
2021/06/25 11:55:53;;;;;;;;;;;27.50;91.70;;;;;;5125309;28;19903;-45
2021/06/25 11:58:20;;;;;;;;;;;27.60;91.70;;;;;;5125441;28;19907;-46
2021/06/25 12:00:46;;;;;;;;;;;27.60;91.70;;;;;;5125080;28;19904;-46
2021/06/25 12:03:12;;;;;;;;;;;27.60;91.90;;;;;;5125116;28;19994;-45
2021/06/25 12:05:44;;;;;;;;;;;27.50;92.00;;;;;;5124993;28;19906;-48
2021/06/25 12:08:16;;;;;;;;;;;27.40;92.00;;;;;;5125109;28;19907;-51
2021/06/25 12:10:43;;;;;;;;;;;27.40;92.00;;;;;;5124823;28;19963;-46
2021/06/25 12:13:10;;;;;;;;;;;27.40;92.10;;;;;;5125278;28;20180;-46
2021/06/25 12:15:49;;;;;;;;;;;27.40;92.10;;;;;;5124835;28;19899;-46
2021/06/25 12:18:25;;;;;;;;;;;27.40;92.40;;;;;;5125294;28;19908;-45
2021/06/25 12:21:04;;;;;;;;;;;27.50;92.20;;;;;;5124876;28;19900;-45
2021/06/25 12:23:31;;;;;;;;;;;27.40;92.20;;;;;;5125410;28;20091;-50
2021/06/25 12:25:57;;;;;;;;;;;27.50;92.20;;;;;;5124665;28;19908;-49
2021/06/25 12:28:24;;;;;;;;;;;27.50;92.10;;;;;;5125104;28;19931;-51
2021/06/25 12:30:53;;;;;;;;;;;27.60;92.00;;;;;;5124818;28;19982;-48
2021/06/25 12:33:24;;;;;;;;;;;27.60;92.00;;;;;;5125176;28;19978;-46
2021/06/25 12:35:51;;;;;;;;;;;27.60;91.90;;;;;;5124576;28;19907;-53
2021/06/25 12:38:27;;;;;;;;;;;27.60;91.80;;;;;;5124564;28;20100;-47
2021/06/25 12:40:57;;;;;;;;;;;27.70;91.80;;;;;;5124720;28;19904;-47
2021/06/25 12:43:29;;;;;;;;;;;27.70;91.70;;;;;;5124959;28;20121;-46
2021/06/25 12:46:13;;;;;;;;;;;27.70;91.60;;;;;;5124724;28;20223;-47
2021/06/25 12:48:52;;;;;;;;;;;27.80;91.30;;;;;;5124985;28;19928;-50
2021/06/25 12:51:18;;;;;;;;;;;27.80;91.20;;;;;;5124641;28;19942;-49
2021/06/25 12:53:55;;;;;;;;;;;27.80;91.10;;;;;;5124943;28;19910;-49
2021/06/25 12:56:23;;;;;;;;;;;27.90;91.10;;;;;;5124541;28;19946;-49
2021/06/25 12:58:58;;;;;;;;;;;27.90;91.00;;;;;;5125019;28;19911;-45
2021/06/25 13:01:25;;;;;;;;;;;27.90;90.70;;;;;;5124510;28;19903;-45
2021/06/25 13:03:51;;;;;;;;;;;28.00;90.70;;;;;;5124347;28;19914;-47
2021/06/25 13:06:24;;;;;;;;;;;28.00;90.90;;;;;;5124157;28;19899;-47
2021/06/25 13:08:50;;;;;;;;;;;28.00;90.80;;;;;;5124461;28;20002;-50
2021/06/25 13:11:18;;;;;;;;;;;28.00;90.70;;;;;;5124393;28;19900;-50
2021/06/25 13:13:44;;;;;;;;;;;28.10;90.60;;;;;;5124693;28;19910;-47
2021/06/25 13:16:18;;;;;;;;;;;28.10;90.70;;;;;;5124604;28;19903;-45
2021/06/25 13:18:45;;;;;;;;;;;28.00;90.60;;;;;;5124973;28;19903;-45
2021/06/25 13:21:24;;;;;;;;;;;28.10;90.60;;;;;;5125853;28;19971;-45
2021/06/25 13:23:56;;;;;;;;;;;28.20;90.60;;;;;;5126900;28;19911;-44
2021/06/25 13:26:27;;;;;;;;;;;28.20;90.50;;;;;;5127936;28;19907;-44
2021/06/25 13:28:59;;;;;;;;;;;28.20;90.40;;;;;;5127130;28;19908;-50
2021/06/25 13:31:26;;;;;;;;;;;28.20;90.50;;;;;;5127781;28;19931;-56
2021/06/25 13:33:53;;;;;;;;;;;28.20;90.50;;;;;;5127659;27;20214;-44
2021/06/25 13:36:19;;;;;;;;;;;28.30;90.40;;;;;;5127801;28;19899;-44
2021/06/25 13:38:45;;;;;;;;;;;28.20;90.30;;;;;;5126391;28;19916;-53
2021/06/25 13:41:24;;;;;;;;;;;28.30;90.20;;;;;;5127325;28;19900;-50
2021/06/25 13:43:57;;;;;;;;;;;28.30;89.30;;;;;;5127300;28;20218;-42
2021/06/25 13:46:27;;;;;;;;;;;28.40;89.90;;;;;;5127400;28;20073;-43
2021/06/25 13:49:01;;;;;;;;;;;28.40;90.00;;;;;;5127647;28;19930;-44
2021/06/25 13:51:27;;;;;;;;;;;28.40;89.80;;;;;;5127386;28;19906;-47
2021/06/25 13:53:54;;;;;;;;;;;28.40;89.50;;;;;;5127258;28;19899;-44
2021/06/25 13:56:21;;;;;;;;;;;28.40;89.30;;;;;;5127385;27;19900;-44
2021/06/25 13:58:51;;;;;;;;;;;28.50;89.30;;;;;;5127750;28;19907;-52
2021/06/25 14:01:22;;;;;;;;;;;28.50;89.30;;;;;;5127122;28;19914;-47
2021/06/25 14:03:59;;;;;;;;;;;28.50;88.90;;;;;;5127658;28;20203;-47
2021/06/25 14:06:25;;;;;;;;;;;28.50;89.20;;;;;;5127048;28;19900;-52
2021/06/25 14:08:52;;;;;;;;;;;28.50;89.30;;;;;;5126949;28;20127;-49
2021/06/25 14:11:20;;;;;;;;;;;28.60;88.40;;;;;;5126955;28;19899;-46
2021/06/25 14:13:48;;;;;;;;;;;28.70;88.70;;;;;;5127357;28;19949;-47
2021/06/25 14:16:15;;;;;;;;;;;28.80;87.30;;;;;;5127034;28;19900;-44
2021/06/25 14:18:42;;;;;;;;;;;28.80;87.90;;;;;;5127450;27;19944;-50
2021/06/25 14:21:08;;;;;;;;;;;28.80;87.70;;;;;;5126769;28;20199;-49
2021/06/25 14:23:35;;;;;;;;;;;28.90;87.10;;;;;;5127167;28;20211;-49
2021/06/25 14:26:01;;;;;;;;;;;28.90;87.20;;;;;;5126699;28;19900;-44
2021/06/25 14:28:28;;;;;;;;;;;29.00;87.40;;;;;;5125545;28;20191;-51
2021/06/25 14:30:54;;;;;;;;;;;28.90;87.10;;;;;;5126821;28;19899;-50
2021/06/25 14:33:21;;;;;;;;;;;28.90;86.40;;;;;;5126972;28;19914;-45
2021/06/25 14:35:47;;;;;;;;;;;29.00;87.30;;;;;;5126463;28;19906;-48
2021/06/25 14:38:14;;;;;;;;;;;29.00;87.30;;;;;;5126510;28;19923;-53
2021/06/25 14:40:40;;;;;;;;;;;29.00;86.90;;;;;;5126600;28;19903;-47
2021/06/25 14:43:06;;;;;;;;;;;29.00;87.20;;;;;;5126647;28;19918;-49
2021/06/25 14:45:32;;;;;;;;;;;29.00;85.30;;;;;;5126465;28;19899;-48
2021/06/25 14:48:00;;;;;;;;;;;29.10;84.80;;;;;;5126665;28;19908;-45
2021/06/25 14:50:26;;;;;;;;;;;29.10;85.50;;;;;;5126265;28;19945;-43
2021/06/25 14:52:53;;;;;;;;;;;29.10;86.20;;;;;;5126463;28;19974;-45
2021/06/25 14:55:19;;;;;;;;;;;29.10;86.30;;;;;;5126066;28;19922;-52
2021/06/25 14:57:46;;;;;;;;;;;29.00;86.70;;;;;;5126381;28;19922;-46
2021/06/25 15:00:12;;;;;;;;;;;29.10;86.80;;;;;;5125998;27;19937;-45
2021/06/25 15:02:39;;;;;;;;;;;29.10;87.10;;;;;;5126198;28;19943;-48
2021/06/25 15:05:06;;;;;;;;;;;29.10;86.80;;;;;;5126083;28;19899;-48
2021/06/25 15:07:32;;;;;;;;;;;29.10;86.80;;;;;;5125961;28;19914;-49
2021/06/25 15:10:00;;;;;;;;;;;29.10;87.60;;;;;;5125921;28;19923;-48
2021/06/25 15:12:27;;;;;;;;;;;29.10;87.40;;;;;;5124634;28;19914;-44
2021/06/25 15:14:53;;;;;;;;;;;29.10;87.20;;;;;;5125318;28;19934;-48
2021/06/25 15:17:19;;;;;;;;;;;29.10;87.00;;;;;;5125919;28;19911;-45